createdAt,value
2022-10-19T00:01:31.357Z,4.25
2022-10-19T00:03:58.885Z,3.85
2022-10-19T00:06:28.642Z,4.17
2022-10-19T00:09:01.325Z,3.63
2022-10-19T00:11:28.939Z,3.58
2022-10-19T00:13:57.001Z,4.13
2022-10-19T00:16:28.902Z,4.13
2022-10-19T00:19:00.510Z,4.13
2022-10-19T00:21:27.774Z,4.57
2022-10-19T00:23:54.212Z,4.85
2022-10-19T00:26:20.642Z,5.53
2022-10-19T00:28:47.453Z,4.90
2022-10-19T00:31:16.604Z,4.83
2022-10-19T00:33:49.306Z,5.32
2022-10-19T00:36:23.225Z,4.43
2022-10-19T00:38:50.191Z,3.80
2022-10-19T00:41:17.768Z,3.60
2022-10-19T00:44:28.728Z,3.73
2022-10-19T00:46:59.756Z,4.35
2022-10-19T00:49:29.868Z,4.22
2022-10-19T00:52:01.580Z,3.97
2022-10-19T00:54:28.864Z,3.50
2022-10-19T00:56:57.841Z,3.40
2022-10-19T00:59:25.581Z,3.53
2022-10-19T01:01:53.260Z,3.20
2022-10-19T01:04:25.261Z,3.78
2022-10-19T01:06:53.571Z,3.75
2022-10-19T01:09:20.690Z,3.20
2022-10-19T01:12:03.839Z,3.58
2022-10-19T01:14:52.158Z,3.72
2022-10-19T01:17:43.465Z,3.88
2022-10-19T01:20:33.175Z,3.05
2022-10-19T01:23:17.093Z,3.50
2022-10-19T01:25:49.705Z,3.17
2022-10-19T01:28:57.816Z,3.13
2022-10-19T01:31:44.638Z,3.05
2022-10-19T01:34:36.878Z,3.90
2022-10-19T01:37:25.889Z,4.37
2022-10-19T01:40:15.430Z,3.50
2022-10-19T01:42:47.870Z,3.50
2022-10-19T01:45:21.744Z,2.90
2022-10-19T01:47:55.396Z,3.67
2022-10-19T01:50:39.418Z,3.03
2022-10-19T01:53:08.600Z,3.55
2022-10-19T01:55:39.175Z,3.10
2022-10-19T01:58:09.732Z,3.45
2022-10-19T02:00:41.032Z,4.45
2022-10-19T02:03:09.930Z,4.10
2022-10-19T02:05:38.124Z,5.20
2022-10-19T02:08:12.071Z,4.43
2022-10-19T02:10:42.743Z,4.57
2022-10-19T02:13:10.189Z,4.13
2022-10-19T02:15:40.762Z,4.30
2022-10-19T02:18:10.188Z,5.20
2022-10-19T02:20:37.233Z,4.38
2022-10-19T02:23:05.505Z,3.90
2022-10-19T02:25:33.078Z,3.80
2022-10-19T02:28:02.114Z,4.30
2022-10-19T02:30:28.825Z,4.25
2022-10-19T02:32:55.328Z,3.80
2022-10-19T02:35:22.938Z,3.70
2022-10-19T02:37:49.578Z,4.80
2022-10-19T02:40:16.279Z,4.03
2022-10-19T02:42:52.411Z,3.78
2022-10-19T02:45:24.040Z,4.05
2022-10-19T02:48:02.069Z,4.53
2022-10-19T02:50:29.110Z,4.25
2022-10-19T02:52:55.486Z,4.07
2022-10-19T02:55:21.891Z,4.60
2022-10-19T02:57:48.249Z,3.60
2022-10-19T03:00:14.847Z,3.60
2022-10-19T03:02:41.256Z,3.75
2022-10-19T03:05:09.037Z,3.70
2022-10-19T03:07:36.251Z,3.90
2022-10-19T03:10:03.224Z,3.25
2022-10-19T03:12:29.634Z,3.63
2022-10-19T03:14:56.059Z,3.08
2022-10-19T03:17:22.516Z,2.53
2022-10-19T03:19:48.939Z,3.67
2022-10-19T03:22:15.503Z,3.30
2022-10-19T03:24:41.895Z,3.42
2022-10-19T03:27:08.578Z,3.30
2022-10-19T03:29:35.040Z,3.50
2022-10-19T03:32:01.480Z,2.85
2022-10-19T03:34:27.876Z,3.10
2022-10-19T03:36:54.344Z,2.97
2022-10-19T03:39:20.760Z,3.58
2022-10-19T03:41:47.281Z,3.20
2022-10-19T03:44:13.772Z,3.63
2022-10-19T03:46:40.653Z,3.80
2022-10-19T03:49:07.739Z,3.85
2022-10-19T03:51:34.718Z,2.88
2022-10-19T03:54:07.045Z,3.80
2022-10-19T03:56:35.336Z,3.40
2022-10-19T03:59:03.856Z,3.13
2022-10-19T04:01:31.820Z,3.75
2022-10-19T04:04:01.241Z,3.35
2022-10-19T04:06:30.143Z,3.07
2022-10-19T04:08:57.101Z,2.63
2022-10-19T04:11:29.804Z,3.03
2022-10-19T04:13:57.907Z,3.17
2022-10-19T04:16:25.858Z,3.13
2022-10-19T04:18:52.465Z,3.27
2022-10-19T04:21:30.775Z,3.00
2022-10-19T04:24:05.868Z,3.25
2022-10-19T04:26:33.684Z,2.85
2022-10-19T04:29:01.120Z,3.35
2022-10-19T04:31:28.457Z,2.97
2022-10-19T04:33:55.160Z,2.58
2022-10-19T04:36:21.851Z,3.03
2022-10-19T04:38:48.384Z,2.90
2022-10-19T04:41:17.815Z,3.47
2022-10-19T04:43:45.306Z,3.60
2022-10-19T04:46:15.436Z,4.05
2022-10-19T04:48:42.896Z,3.88
2022-10-19T04:51:10.651Z,3.78
2022-10-19T04:53:38.682Z,3.75
2022-10-19T04:56:08.539Z,3.43
2022-10-19T04:58:35.504Z,3.90
2022-10-19T05:01:19.065Z,3.88
2022-10-19T05:03:46.255Z,3.88
2022-10-19T05:06:13.695Z,3.78
2022-10-19T05:08:40.142Z,3.60
2022-10-19T05:11:14.453Z,3.80
2022-10-19T05:13:41.904Z,3.42
2022-10-19T05:16:15.297Z,3.70
2022-10-19T05:18:42.368Z,3.53
2022-10-19T05:21:11.188Z,4.20
2022-10-19T05:23:38.459Z,4.00
2022-10-19T05:26:08.903Z,3.40
2022-10-19T05:28:35.887Z,3.55
2022-10-19T05:31:06.694Z,3.72
2022-10-19T05:33:34.072Z,4.43
2022-10-19T05:36:29.571Z,3.80
2022-10-19T05:38:57.777Z,3.60
2022-10-19T05:41:26.003Z,3.50
2022-10-19T05:43:54.872Z,3.53
2022-10-19T05:46:21.675Z,3.97
2022-10-19T05:48:48.572Z,3.25
2022-10-19T05:51:18.683Z,3.38
2022-10-19T05:53:45.689Z,3.60
2022-10-19T05:56:17.788Z,2.88
2022-10-19T05:58:44.288Z,3.33
2022-10-19T06:01:11.191Z,3.58
2022-10-19T06:03:37.597Z,3.28
2022-10-19T06:06:05.853Z,3.72
2022-10-19T06:08:32.664Z,3.40
2022-10-19T06:11:14.084Z,3.67
2022-10-19T06:13:41.797Z,4.53
2022-10-19T06:16:09.822Z,5.60
2022-10-19T06:18:36.832Z,4.50
2022-10-19T06:21:08.917Z,3.85
2022-10-19T06:23:35.782Z,3.47
2022-10-19T06:26:04.589Z,3.40
2022-10-19T06:28:31.117Z,3.97
2022-10-19T06:30:58.872Z,3.58
2022-10-19T06:33:26.901Z,3.70
2022-10-19T06:35:53.644Z,3.30
2022-10-19T06:38:20.315Z,3.45
2022-10-19T06:40:47.086Z,3.40
2022-10-19T06:43:13.479Z,3.80
2022-10-19T06:45:40.372Z,3.35
2022-10-19T06:48:07.902Z,3.10
2022-10-19T06:50:35.357Z,2.92
2022-10-19T06:53:01.868Z,2.55
2022-10-19T06:55:28.457Z,2.55
2022-10-19T06:57:54.861Z,2.53
2022-10-19T07:00:21.316Z,2.53
2022-10-19T07:02:47.805Z,3.22
2022-10-19T07:05:14.339Z,2.50
2022-10-19T07:07:40.787Z,2.60
2022-10-19T07:10:07.525Z,1.92
2022-10-19T07:12:33.965Z,1.93
2022-10-19T07:15:00.357Z,2.20
2022-10-19T07:17:26.785Z,2.20
2022-10-19T07:19:53.290Z,2.10
2022-10-19T07:22:23.272Z,2.00
2022-10-19T07:24:54.604Z,1.90
2022-10-19T07:27:21.039Z,1.80
2022-10-19T07:29:47.482Z,1.80
2022-10-19T07:32:13.918Z,1.83
2022-10-19T07:34:40.307Z,1.58
2022-10-19T07:37:06.771Z,1.93
2022-10-19T07:39:33.286Z,2.17
2022-10-19T07:41:59.700Z,2.08
2022-10-19T07:44:26.381Z,1.55
2022-10-19T07:46:52.801Z,2.45
2022-10-19T07:49:19.997Z,2.10
2022-10-19T07:51:47.112Z,2.28
2022-10-19T07:54:13.686Z,2.70
2022-10-19T07:56:40.462Z,2.80
2022-10-19T07:59:07.031Z,2.10
2022-10-19T08:01:38.362Z,2.30
2022-10-19T08:06:51.340Z,2.30
2022-10-19T08:09:40.116Z,2.53
2022-10-19T08:12:05.784Z,2.58
2022-10-19T08:14:32.565Z,2.03
2022-10-19T08:16:59.038Z,2.08
2022-10-19T08:19:25.514Z,2.42
2022-10-19T08:21:52.141Z,2.25
2022-10-19T08:24:19.886Z,2.35
2022-10-19T08:26:46.718Z,2.10
2022-10-19T08:29:15.890Z,2.17
2022-10-19T08:31:43.842Z,2.13
2022-10-19T08:34:10.642Z,1.98
2022-10-19T08:36:37.214Z,2.20
2022-10-19T08:39:05.944Z,2.10
2022-10-19T08:41:32.426Z,2.00
2022-10-19T08:44:20.265Z,1.95
2022-10-19T08:47:00.521Z,1.73
2022-10-19T08:49:31.761Z,1.88
2022-10-19T08:52:00.707Z,1.30
2022-10-19T08:54:54.314Z,1.80
2022-10-19T08:57:34.757Z,1.50
2022-10-19T09:00:18.865Z,1.55
2022-10-19T09:03:11.981Z,2.00
2022-10-19T09:05:47.816Z,1.87
2022-10-19T09:08:17.795Z,1.67
2022-10-19T09:10:48.744Z,1.98
2022-10-19T09:13:36.419Z,2.53
2022-10-19T09:16:17.470Z,1.67
2022-10-19T09:18:46.874Z,1.70
2022-10-19T09:21:34.449Z,1.90
2022-10-19T09:24:24.774Z,2.00
2022-10-19T09:26:54.401Z,2.22
2022-10-19T09:29:27.859Z,2.17
2022-10-19T09:35:02.621Z,1.77
2022-10-19T09:37:31.167Z,2.35
2022-10-19T09:39:57.664Z,1.50
2022-10-19T09:42:30.123Z,1.45
2022-10-19T09:44:58.537Z,1.57
2022-10-19T09:47:34.597Z,1.73
2022-10-19T09:50:26.970Z,1.83
2022-10-19T09:52:56.584Z,1.73
2022-10-19T09:55:22.940Z,1.45
2022-10-19T09:57:58.368Z,1.60
2022-10-19T10:00:32.181Z,1.55
2022-10-19T10:02:58.713Z,1.40
2022-10-19T10:05:34.464Z,1.50
2022-10-19T10:08:01.526Z,1.75
2022-10-19T10:10:39.216Z,1.10
2022-10-19T10:13:06.132Z,1.00
2022-10-19T10:15:43.325Z,1.10
2022-10-19T10:18:15.558Z,0.65
2022-10-19T10:21:05.868Z,1.35
2022-10-19T10:23:36.263Z,0.70
2022-10-19T10:26:04.717Z,1.15
2022-10-19T10:28:31.617Z,1.25
2022-10-19T10:31:08.828Z,0.88
2022-10-19T10:33:44.645Z,0.95
2022-10-19T10:36:12.336Z,0.60
2022-10-19T10:38:51.740Z,0.85
2022-10-19T10:41:23.263Z,0.82
2022-10-19T10:44:04.531Z,0.80
2022-10-19T10:47:02.519Z,1.02
2022-10-19T10:49:35.139Z,0.60
2022-10-19T10:52:06.496Z,0.70
2022-10-19T10:54:33.498Z,0.80
2022-10-19T10:57:05.589Z,0.70
2022-10-19T10:59:44.720Z,1.05
2022-10-19T11:02:42.307Z,0.97
2022-10-19T11:05:19.496Z,1.00
2022-10-19T11:07:50.472Z,0.80
2022-10-19T11:10:24.307Z,0.73
2022-10-19T11:13:07.130Z,0.82
2022-10-19T11:16:06.669Z,0.90
2022-10-19T11:18:46.067Z,0.65
2022-10-19T11:21:20.217Z,0.90
2022-10-19T11:24:17.546Z,0.88
2022-10-19T11:27:22.077Z,0.70
2022-10-19T11:30:04.180Z,0.60
2022-10-19T11:32:35.872Z,0.68
2022-10-19T11:35:25.785Z,1.70
2022-10-19T11:38:18.323Z,0.82
2022-10-19T11:41:17.882Z,0.60
2022-10-19T11:44:01.563Z,0.60
2022-10-19T11:46:49.120Z,1.20
2022-10-19T11:49:54.587Z,0.60
2022-10-19T11:52:34.639Z,0.80
2022-10-19T11:55:04.700Z,0.60
2022-10-19T11:57:38.203Z,0.60
2022-10-19T12:00:27.338Z,1.15
2022-10-19T12:03:19.614Z,0.68
2022-10-19T12:06:01.227Z,1.02
2022-10-19T12:08:51.189Z,0.80
2022-10-19T12:11:27.547Z,0.77
2022-10-19T12:13:59.479Z,0.85
2022-10-19T12:16:38.154Z,1.10
2022-10-19T12:19:06.562Z,0.93
2022-10-19T12:21:43.179Z,1.00
2022-10-19T12:24:15.802Z,1.00
2022-10-19T12:26:44.411Z,0.88
2022-10-19T12:29:26.916Z,1.50
2022-10-19T12:31:56.070Z,0.80
2022-10-19T12:35:13.880Z,1.20
2022-10-19T12:38:05.522Z,0.90
2022-10-19T12:40:53.997Z,0.90
2022-10-19T12:43:33.989Z,0.90
2022-10-19T12:46:00.410Z,1.20
2022-10-19T12:48:26.840Z,1.08
2022-10-19T12:50:53.948Z,1.00
2022-10-19T12:53:32.439Z,1.02
2022-10-19T12:56:07.171Z,1.50
2022-10-19T12:58:43.622Z,1.30
2022-10-19T13:01:34.480Z,0.98
2022-10-19T13:04:09.062Z,1.30
2022-10-19T13:06:39.496Z,1.58
2022-10-19T13:09:09.100Z,1.15
2022-10-19T13:11:38.297Z,1.30
2022-10-19T13:14:20.095Z,1.20
2022-10-19T13:16:57.177Z,1.23
2022-10-19T13:19:23.816Z,1.45
2022-10-19T13:21:51.445Z,1.20
2022-10-19T13:24:23.910Z,1.23
2022-10-19T13:27:02.476Z,1.33
2022-10-19T13:29:41.206Z,1.93
2022-10-19T13:32:36.435Z,2.05
2022-10-19T13:35:21.577Z,1.10
2022-10-19T13:38:10.262Z,1.25
2022-10-19T13:40:39.205Z,1.13
2022-10-19T13:43:05.643Z,1.20
2022-10-19T13:45:32.169Z,1.50
2022-10-19T13:48:14.595Z,1.13
2022-10-19T13:50:47.968Z,1.05
2022-10-19T13:53:23.573Z,0.93
2022-10-19T13:56:22.413Z,0.80
2022-10-19T13:59:24.742Z,1.20
2022-10-19T14:01:54.284Z,0.80
2022-10-19T14:04:50.486Z,0.70
2022-10-19T14:07:25.333Z,0.70
2022-10-19T14:10:32.655Z,1.20
2022-10-19T14:13:00.542Z,0.90
2022-10-19T14:15:32.200Z,0.88
2022-10-19T14:18:02.387Z,0.70
2022-10-19T14:20:38.289Z,0.95
2022-10-19T14:23:23.914Z,0.90
2022-10-19T14:25:53.156Z,0.85
2022-10-19T14:28:21.922Z,0.70
2022-10-19T14:31:00.498Z,0.80
2022-10-19T14:33:30.189Z,1.17
2022-10-19T14:35:57.010Z,0.80
2022-10-19T14:38:27.841Z,0.75
2022-10-19T14:40:55.797Z,0.70
2022-10-19T14:43:25.807Z,0.63
2022-10-19T14:46:10.873Z,0.65
2022-10-19T14:48:48.966Z,0.90
2022-10-19T14:51:30.854Z,1.83
2022-10-19T14:54:08.137Z,4.07
2022-10-19T14:56:58.545Z,1.50
2022-10-19T14:59:29.948Z,2.03
2022-10-19T15:02:00.127Z,2.17
2022-10-19T15:04:31.570Z,1.33
2022-10-19T15:07:01.030Z,2.00
2022-10-19T15:09:37.460Z,0.90
2022-10-19T15:12:17.070Z,1.00
2022-10-19T15:14:45.343Z,1.10
2022-10-19T15:17:30.076Z,0.98
2022-10-19T15:20:00.811Z,1.00
2022-10-19T15:22:30.571Z,1.08
2022-10-19T15:25:06.208Z,1.23
2022-10-19T15:27:45.565Z,1.27
2022-10-19T15:30:17.907Z,1.08
2022-10-19T15:33:08.304Z,1.40
2022-10-19T15:35:37.426Z,1.33
2022-10-19T15:38:22.737Z,1.23
2022-10-19T15:40:49.670Z,0.90
2022-10-19T15:43:34.436Z,1.20
2022-10-19T15:46:03.839Z,1.17
2022-10-19T15:48:44.349Z,0.85
2022-10-19T15:51:33.057Z,1.30
2022-10-19T15:54:05.601Z,1.53
2022-10-19T15:56:36.816Z,1.00
2022-10-19T15:59:06.504Z,1.20
2022-10-19T16:01:34.379Z,1.30
2022-10-19T16:04:01.041Z,1.42
2022-10-19T16:06:33.095Z,1.10
2022-10-19T16:09:00.721Z,1.98
2022-10-19T16:11:28.967Z,1.67
2022-10-19T16:13:55.481Z,1.45
2022-10-19T16:16:26.741Z,1.50
2022-10-19T16:18:54.550Z,1.40
2022-10-19T16:21:24.284Z,2.20
2022-10-19T16:23:50.752Z,1.60
2022-10-19T16:26:19.621Z,2.20
2022-10-19T16:28:46.079Z,1.42
2022-10-19T16:31:12.510Z,1.90
2022-10-19T16:33:39.021Z,1.92
2022-10-19T16:36:07.337Z,2.10
2022-10-19T16:38:34.890Z,2.70
2022-10-19T16:41:09.009Z,2.47
2022-10-19T16:43:36.355Z,2.00
2022-10-19T16:46:03.915Z,2.50
2022-10-19T16:48:30.679Z,2.90
2022-10-19T16:51:06.499Z,2.72
2022-10-19T16:53:33.694Z,2.72
2022-10-19T16:56:08.916Z,2.67
2022-10-19T16:58:37.210Z,2.40
2022-10-19T17:01:11.772Z,2.80
2022-10-19T17:03:38.372Z,2.85
2022-10-19T17:06:07.066Z,2.83
2022-10-19T17:08:37.084Z,2.90
2022-10-19T17:11:20.653Z,2.92
2022-10-19T17:13:49.405Z,3.50
2022-10-19T17:16:18.276Z,3.88
2022-10-19T17:18:45.075Z,4.13
2022-10-19T17:21:14.823Z,3.40
2022-10-19T17:23:42.015Z,3.65
2022-10-19T17:26:09.228Z,3.70
2022-10-19T17:28:36.928Z,3.45
2022-10-19T17:31:05.785Z,4.25
2022-10-19T17:33:32.625Z,3.50
2022-10-19T17:36:08.498Z,3.83
2022-10-19T17:38:36.428Z,4.13
2022-10-19T17:41:14.602Z,4.63
2022-10-19T17:43:45.858Z,3.60
2022-10-19T17:46:14.274Z,4.53
2022-10-19T17:48:42.840Z,3.78
2022-10-19T17:51:15.896Z,4.10
2022-10-19T17:53:46.157Z,4.03
2022-10-19T17:56:15.726Z,4.10
2022-10-19T17:58:42.590Z,3.50
2022-10-19T18:01:11.077Z,4.55
2022-10-19T18:03:38.773Z,4.47
2022-10-19T18:06:10.792Z,4.65
2022-10-19T18:08:43.247Z,5.60
2022-10-19T18:11:15.958Z,5.33
2022-10-19T18:13:43.133Z,4.00
2022-10-19T18:16:12.885Z,4.57
2022-10-19T18:18:41.947Z,3.80
2022-10-19T18:21:13.506Z,4.50
2022-10-19T18:23:40.325Z,4.23
2022-10-19T18:26:10.649Z,4.00
2022-10-19T18:28:37.667Z,4.50
2022-10-19T18:31:08.841Z,4.30
2022-10-19T18:33:36.084Z,3.72
2022-10-19T18:36:04.099Z,3.87
2022-10-19T18:38:30.713Z,4.45
2022-10-19T18:41:05.589Z,4.28
2022-10-19T18:43:32.180Z,4.15
2022-10-19T18:46:00.211Z,3.78
2022-10-19T18:48:29.229Z,4.07
2022-10-19T18:50:57.228Z,3.60
2022-10-19T18:53:24.152Z,3.70
2022-10-19T18:56:07.390Z,3.60
2022-10-19T18:58:34.824Z,3.63
2022-10-19T19:01:04.193Z,3.37
2022-10-19T19:03:30.967Z,3.75
2022-10-19T19:06:05.864Z,3.67
2022-10-19T19:08:32.536Z,3.67
2022-10-19T19:11:15.961Z,3.50
2022-10-19T19:13:51.015Z,2.80
2022-10-19T19:16:17.704Z,3.83
2022-10-19T19:18:44.186Z,3.30
2022-10-19T19:21:22.677Z,3.75
2022-10-19T19:23:50.327Z,3.75
2022-10-19T19:26:17.954Z,3.37
2022-10-19T19:28:49.060Z,3.58
2022-10-19T19:31:18.955Z,3.38
2022-10-19T19:33:46.979Z,3.58
2022-10-19T19:36:15.577Z,3.28
2022-10-19T19:38:42.543Z,3.47
2022-10-19T19:41:12.900Z,3.40
2022-10-19T19:43:39.477Z,4.57
2022-10-19T19:46:12.528Z,3.58
2022-10-19T19:48:41.112Z,4.03
2022-10-19T19:51:09.181Z,3.60
2022-10-19T19:53:36.895Z,3.70
2022-10-19T19:56:03.792Z,3.70
2022-10-19T19:58:30.188Z,3.70
2022-10-19T20:00:56.590Z,3.78
2022-10-19T20:03:23.028Z,4.00
2022-10-19T20:05:49.433Z,3.38
2022-10-19T20:08:15.849Z,3.42
2022-10-19T20:10:43.541Z,3.25
2022-10-19T20:13:09.914Z,4.15
2022-10-19T20:15:39.629Z,3.03
2022-10-19T20:18:06.427Z,3.80
2022-10-19T20:20:32.912Z,3.05
2022-10-19T20:22:59.392Z,4.05
2022-10-19T20:25:25.852Z,3.58
2022-10-19T20:27:52.236Z,3.30
2022-10-19T20:30:18.720Z,3.30
2022-10-19T20:32:45.126Z,3.30
2022-10-19T20:35:11.553Z,3.63
2022-10-19T20:37:37.953Z,3.17
2022-10-19T20:40:08.519Z,3.13
2022-10-19T20:42:35.863Z,3.78
2022-10-19T20:45:02.668Z,3.42
2022-10-19T20:47:29.462Z,3.28
2022-10-19T20:49:55.880Z,3.45
2022-10-19T20:52:22.323Z,3.27
2022-10-19T20:54:49.282Z,3.00
2022-10-19T20:57:15.741Z,3.17
2022-10-19T20:59:43.831Z,2.92
2022-10-19T21:02:11.481Z,3.75
2022-10-19T21:04:37.949Z,3.00
2022-10-19T21:07:05.008Z,3.30
2022-10-19T21:09:31.883Z,3.60
2022-10-19T21:11:58.585Z,3.65
2022-10-19T21:14:28.383Z,3.33
2022-10-19T21:16:57.327Z,3.23
2022-10-19T21:19:25.781Z,3.55
2022-10-19T21:21:57.868Z,3.90
2022-10-19T21:24:26.978Z,3.15
2022-10-19T21:26:54.076Z,3.00
2022-10-19T21:29:20.593Z,3.40
2022-10-19T21:31:49.422Z,3.60
2022-10-19T21:34:25.338Z,3.63
2022-10-19T21:36:52.268Z,3.03
2022-10-19T21:39:19.554Z,3.13
2022-10-19T21:41:46.703Z,3.33
2022-10-19T21:44:14.749Z,3.55
2022-10-19T21:46:43.466Z,3.10
2022-10-19T21:49:13.041Z,3.30
2022-10-19T21:51:43.628Z,3.20
2022-10-19T21:54:15.948Z,3.17
2022-10-19T21:56:43.227Z,3.05
2022-10-19T21:59:09.773Z,3.30
2022-10-19T22:01:40.163Z,3.10
2022-10-19T22:04:11.732Z,3.22
2022-10-19T22:06:38.252Z,3.33
2022-10-19T22:09:06.857Z,2.65
2022-10-19T22:11:34.071Z,3.38
2022-10-19T22:14:02.530Z,2.70
2022-10-19T22:16:30.083Z,3.25
2022-10-19T22:18:57.276Z,3.30
2022-10-19T22:21:26.902Z,4.00
2022-10-19T22:23:56.495Z,3.15
2022-10-19T22:26:29.031Z,3.30
2022-10-19T22:28:57.122Z,3.40
2022-10-19T22:31:24.890Z,3.13
2022-10-19T22:33:51.364Z,3.78
2022-10-19T22:36:18.363Z,3.38
2022-10-19T22:38:45.092Z,2.88
2022-10-19T22:42:07.609Z,3.40
2022-10-19T22:44:34.058Z,3.20
2022-10-19T22:47:00.495Z,3.03
2022-10-19T22:49:26.898Z,3.50
2022-10-19T22:51:53.296Z,3.90
2022-10-19T22:54:19.728Z,3.13
2022-10-19T22:56:46.251Z,3.33
2022-10-19T22:59:12.795Z,3.53
2022-10-19T23:01:39.315Z,3.38
2022-10-19T23:04:06.132Z,3.53
2022-10-19T23:06:32.901Z,3.47
2022-10-19T23:08:59.370Z,3.60
2022-10-19T23:11:25.819Z,3.22
2022-10-19T23:13:52.269Z,3.40
2022-10-19T23:16:18.761Z,3.47
2022-10-19T23:18:45.253Z,3.72
2022-10-19T23:21:13.277Z,3.47
2022-10-19T23:23:40.222Z,3.20
2022-10-19T23:26:12.915Z,3.58
2022-10-19T23:28:40.967Z,3.35
2022-10-19T23:31:10.673Z,3.25
2022-10-19T23:33:37.306Z,3.50
2022-10-19T23:36:11.426Z,3.40
2022-10-19T23:38:37.868Z,3.58
2022-10-19T23:41:04.721Z,3.42
2022-10-19T23:43:31.584Z,3.50
2022-10-19T23:45:58.124Z,3.73
2022-10-19T23:48:25.287Z,3.20
2022-10-19T23:50:59.584Z,3.20
2022-10-19T23:53:26.459Z,3.30
2022-10-19T23:55:58.948Z,3.28
2022-10-19T23:58:25.479Z,3.57
